Portada
METAR-TAF:

METAR-TAF

Aeropuertos :

Base Aérea de Alcantarilla

Murcia, España

latitud: 37-57N, longitud: 001-14W, altitud: 75 m

Observación

El informe se hizo hace 15 minutos, a las 12:30 UTC
Viento 3 kt del noreste, variando entre norte y sur-sureste
Temperatura 15°C
Humedad 33%
Presión 1031 hPa
Visibilidad 10 km o más
sin nubes por debajo de 1500 m y sin presencia de cumulonimbus.

METAR: LERI 031230Z 05003KT 010V150 CAVOK 15/M01 Q1031 NOSIG

Hora: 13:45 (12:45 UTC)

Pronóstico

El informe se hizo hace 1 hora y 45 minutos, a las 11:00 UTC
Pronóstico válido del 03 a las 12 UTC al 04 a las 12 UTC
Viento 10 kt del este-noreste
Visibilidad 10 km o más
sin nubes por debajo de 1500 m y sin presencia de cumulonimbus.
Evolucionando progresivamente
del 03 a las 17 UTC al 03 a las 19 UTC
Viento 2 kt con dirección variable

TAF: LERI 031100Z 0312/0412 07010KT CAVOK TX17/0314Z TNM01/0406Z BECMG 0317/0319 VRB02KT

Observaciones y pronósticos meteorológicos de más de 4000 aeropuertos (mensajes METAR y TAF).

Los puntos amarillos y rojos representan las estaciones disponibles.

Ponga el ratón en el punto deseado para ver el nombre de la estación.

Haga clic para ver las observaciones y los pronósticos meteorológicos.

Para cambiar el mapa : haga clic en los botones verdes con una cruz de color negro para hacer un zoom, en el botón verde con un guión para alejar o en las flechas verdes para mapas adyacentes.


METAR-TAF: